createdAt,value
2019-01-30T00:01:34.393Z,98992.41
2019-01-30T00:04:06.316Z,98985.13
2019-01-30T00:06:39.785Z,98974.22
2019-01-30T00:09:12.069Z,98968.50
2019-01-30T00:11:44.300Z,98972.99
2019-01-30T00:14:16.069Z,98968.19
2019-01-30T00:16:47.757Z,98964.23
2019-01-30T00:19:19.506Z,98967.94
2019-01-30T00:21:51.312Z,98964.49
2019-01-30T00:24:23.002Z,98963.21
2019-01-30T00:26:54.789Z,98960.64
2019-01-30T00:29:25.516Z,98963.66
2019-01-30T00:31:57.318Z,98953.67
2019-01-30T00:34:28.873Z,98954.98
2019-01-30T00:37:00.825Z,98949.86
2019-01-30T00:39:32.592Z,98949.17
2019-01-30T00:42:04.541Z,98938.75
2019-01-30T00:44:37.785Z,98936.67
2019-01-30T00:47:15.821Z,98935.13
2019-01-30T00:49:42.325Z,98928.87
2019-01-30T00:52:16.412Z,98923.85
2019-01-30T00:54:48.057Z,98923.91
2019-01-30T00:57:19.749Z,98924.25
2019-01-30T00:59:50.558Z,98918.01
2019-01-30T01:02:22.313Z,98901.00
2019-01-30T01:04:54.314Z,98901.00
2019-01-30T01:07:26.041Z,98912.45
2019-01-30T01:09:57.773Z,98911.00
2019-01-30T01:12:28.861Z,98904.64
2019-01-30T01:15:00.433Z,98915.71
2019-01-30T01:17:32.048Z,98904.70
2019-01-30T01:20:03.814Z,98912.05
2019-01-30T01:22:35.581Z,98910.25
2019-01-30T01:25:10.450Z,98901.34
2019-01-30T01:27:42.296Z,98901.34
2019-01-30T01:30:25.208Z,98911.03
2019-01-30T01:32:55.794Z,98897.79
2019-01-30T01:35:26.516Z,98898.69
2019-01-30T01:37:58.303Z,98892.03
2019-01-30T01:40:29.853Z,98893.73
2019-01-30T01:43:01.766Z,98898.67
2019-01-30T01:45:32.491Z,98896.63
2019-01-30T01:48:04.306Z,98894.48
2019-01-30T01:50:35.860Z,98891.91
2019-01-30T01:53:07.688Z,98881.02
2019-01-30T01:55:38.475Z,98887.25
2019-01-30T01:58:10.273Z,98880.77
2019-01-30T02:00:41.832Z,98866.13
2019-01-30T02:03:13.398Z,98871.15
2019-01-30T02:05:45.313Z,98880.12
2019-01-30T02:08:16.852Z,98871.64
2019-01-30T02:10:48.414Z,98868.80
2019-01-30T02:13:20.075Z,98873.20
2019-01-30T02:15:51.808Z,98869.45
2019-01-30T02:18:22.600Z,98860.95
2019-01-30T02:20:53.916Z,98856.77
2019-01-30T02:23:25.512Z,98857.80
2019-01-30T02:25:57.316Z,98845.56
2019-01-30T02:28:28.910Z,98847.34
2019-01-30T02:31:01.281Z,98851.59
2019-01-30T02:33:33.320Z,98842.64
2019-01-30T02:36:05.308Z,98837.38
2019-01-30T02:38:36.880Z,98836.73
2019-01-30T02:41:08.758Z,98838.90
2019-01-30T02:43:39.632Z,98834.37
2019-01-30T02:46:11.317Z,98819.92
2019-01-30T02:48:43.399Z,98819.92
2019-01-30T02:51:15.030Z,98818.99
2019-01-30T02:53:46.781Z,98824.33
2019-01-30T02:56:17.506Z,98817.58
2019-01-30T02:58:49.787Z,98813.46
2019-01-30T03:01:20.470Z,98821.11
2019-01-30T03:03:52.305Z,98822.28
2019-01-30T03:06:23.849Z,98816.39
2019-01-30T03:08:56.770Z,98817.58
2019-01-30T03:11:27.464Z,98813.98
2019-01-30T03:13:59.322Z,98807.59
2019-01-30T03:16:30.884Z,98804.92
2019-01-30T03:19:02.628Z,98802.25
2019-01-30T03:21:34.388Z,98791.00
2019-01-30T03:24:06.081Z,98791.00
2019-01-30T03:26:37.734Z,98793.30
2019-01-30T03:29:09.793Z,98789.67
2019-01-30T03:31:41.634Z,98795.03
2019-01-30T03:34:13.366Z,98792.02
2019-01-30T03:36:45.062Z,98792.02
2019-01-30T03:39:16.749Z,98786.44
2019-01-30T03:41:47.479Z,98785.47
2019-01-30T03:44:19.320Z,98788.55
2019-01-30T03:46:50.805Z,98782.73
2019-01-30T03:49:22.598Z,98780.55
2019-01-30T03:51:54.416Z,98752.95
2019-01-30T03:54:26.074Z,98752.95
2019-01-30T03:56:57.811Z,98770.84
2019-01-30T03:59:29.766Z,98769.09
2019-01-30T04:02:01.611Z,98767.22
2019-01-30T04:04:33.348Z,98757.47
2019-01-30T04:07:05.304Z,98757.47
2019-01-30T04:09:36.841Z,98758.70
2019-01-30T04:12:08.606Z,98757.84
2019-01-30T04:14:40.521Z,98748.25
2019-01-30T04:17:12.318Z,98748.25
2019-01-30T04:19:43.877Z,98747.73
2019-01-30T04:22:15.645Z,98744.49
2019-01-30T04:24:47.337Z,98740.44
2019-01-30T04:27:19.178Z,98740.44
2019-01-30T04:29:50.763Z,98729.31
2019-01-30T04:32:21.534Z,98731.72
2019-01-30T04:34:53.536Z,98724.27
2019-01-30T04:37:25.320Z,98723.31
2019-01-30T04:39:57.592Z,98716.80
2019-01-30T04:42:29.377Z,98714.16
2019-01-30T04:45:01.049Z,98714.16
2019-01-30T04:47:32.801Z,98713.45
2019-01-30T04:50:04.773Z,98714.79
2019-01-30T04:52:36.652Z,98706.56
2019-01-30T04:55:08.714Z,98700.25
2019-01-30T04:57:39.464Z,98700.25
2019-01-30T05:00:14.778Z,98699.77
2019-01-30T05:02:46.404Z,98696.10
2019-01-30T05:05:18.080Z,98699.55
2019-01-30T05:07:49.873Z,98697.79
2019-01-30T05:10:21.769Z,98693.73
2019-01-30T05:12:52.614Z,98695.67
2019-01-30T05:15:24.436Z,98678.85
2019-01-30T05:17:56.297Z,98678.85
2019-01-30T05:20:28.327Z,98692.05
2019-01-30T05:23:01.401Z,98691.50
2019-01-30T05:25:33.317Z,98685.91
2019-01-30T05:28:05.314Z,98691.31
2019-01-30T05:30:36.848Z,98691.30
2019-01-30T05:33:08.798Z,98698.66
2019-01-30T05:35:40.410Z,98700.02
2019-01-30T05:38:12.369Z,98701.61
2019-01-30T05:40:44.318Z,98701.51
2019-01-30T05:45:18.693Z,98691.55
2019-01-30T05:47:50.429Z,98692.14
2019-01-30T05:50:22.136Z,98692.14
2019-01-30T05:52:54.328Z,98678.98
2019-01-30T05:55:26.065Z,98678.45
2019-01-30T05:57:57.795Z,98676.16
2019-01-30T06:00:35.267Z,98667.41
2019-01-30T06:03:07.375Z,98668.05
2019-01-30T06:05:39.277Z,98661.75
2019-01-30T06:08:10.848Z,98658.75
2019-01-30T06:10:42.425Z,98659.17
2019-01-30T06:13:14.059Z,98649.98
2019-01-30T06:15:45.736Z,98656.63
2019-01-30T06:18:16.487Z,98655.70
2019-01-30T06:20:48.309Z,98656.34
2019-01-30T06:23:20.411Z,98659.76
2019-01-30T06:25:52.102Z,98662.70
2019-01-30T06:28:26.253Z,98663.31
2019-01-30T06:30:57.749Z,98655.44
2019-01-30T06:33:28.451Z,98659.64
2019-01-30T06:36:00.310Z,98657.85
2019-01-30T06:38:31.902Z,98657.63
2019-01-30T06:41:03.779Z,98670.45
2019-01-30T06:43:35.414Z,98666.75
2019-01-30T06:46:07.311Z,98660.83
2019-01-30T06:48:38.886Z,98664.27
2019-01-30T06:51:10.735Z,98655.40
2019-01-30T06:53:41.501Z,98652.76
2019-01-30T06:56:13.317Z,98648.77
2019-01-30T06:58:44.893Z,98649.72
2019-01-30T07:01:16.401Z,98653.36
2019-01-30T07:03:48.805Z,98653.36
2019-01-30T07:06:20.437Z,98653.36
2019-01-30T07:08:52.629Z,98648.77
2019-01-30T07:11:24.357Z,98625.83
2019-01-30T07:13:56.150Z,98625.83
2019-01-30T07:16:27.790Z,98634.07
2019-01-30T07:18:58.591Z,98640.53
2019-01-30T07:21:30.361Z,98638.70
2019-01-30T07:24:02.072Z,98638.70
2019-01-30T07:26:33.816Z,98639.36
2019-01-30T07:29:05.633Z,98636.77
2019-01-30T07:31:37.358Z,98646.93
2019-01-30T07:34:09.079Z,98641.77
2019-01-30T07:36:40.762Z,98651.24
2019-01-30T07:39:12.034Z,98641.17
2019-01-30T07:41:43.748Z,98644.58
2019-01-30T07:44:14.476Z,98646.36
2019-01-30T07:46:46.307Z,98646.07
2019-01-30T07:49:17.865Z,98653.45
2019-01-30T07:51:49.770Z,98651.11
2019-01-30T07:54:20.526Z,98646.05
2019-01-30T07:56:52.276Z,98640.53
2019-01-30T07:59:23.877Z,98645.53
2019-01-30T08:01:55.423Z,98640.23
2019-01-30T08:04:27.303Z,98649.18
2019-01-30T08:06:59.062Z,98644.48
2019-01-30T08:09:30.813Z,98651.98
2019-01-30T08:12:02.414Z,98653.41
2019-01-30T08:14:34.023Z,98645.64
2019-01-30T08:17:06.304Z,98646.34
2019-01-30T08:19:37.890Z,98648.00
2019-01-30T08:22:09.717Z,98648.23
2019-01-30T08:24:40.529Z,98638.46
2019-01-30T08:27:12.692Z,98636.13
2019-01-30T08:29:44.635Z,98636.13
2019-01-30T08:32:16.876Z,98640.07
2019-01-30T08:34:48.815Z,98640.07
2019-01-30T08:37:20.418Z,98641.70
2019-01-30T08:39:52.059Z,98638.59
2019-01-30T08:42:23.786Z,98642.05
2019-01-30T08:44:54.513Z,98641.70
2019-01-30T08:47:26.318Z,98639.24
2019-01-30T08:49:57.862Z,98637.88
2019-01-30T08:52:29.736Z,98639.83
2019-01-30T08:55:00.782Z,98643.94
2019-01-30T08:57:32.542Z,98643.28
2019-01-30T09:00:04.441Z,98642.66
2019-01-30T09:02:36.022Z,98643.87
2019-01-30T09:05:09.370Z,98651.13
2019-01-30T09:07:44.496Z,98648.11
2019-01-30T09:10:23.313Z,98653.34
2019-01-30T09:12:54.880Z,98653.88
2019-01-30T09:15:28.404Z,98647.59
2019-01-30T09:18:00.056Z,98640.12
2019-01-30T09:20:31.775Z,98646.77
2019-01-30T09:23:02.487Z,98645.13
2019-01-30T09:25:34.268Z,98644.22
2019-01-30T09:28:05.995Z,98634.95
2019-01-30T09:30:40.590Z,98630.08
2019-01-30T09:33:13.405Z,98627.64
2019-01-30T09:35:45.354Z,98627.64
2019-01-30T09:38:17.371Z,98635.77
2019-01-30T09:40:49.299Z,98642.45
2019-01-30T09:43:20.847Z,98636.00
2019-01-30T09:45:52.744Z,98637.05
2019-01-30T09:48:23.471Z,98633.17
2019-01-30T09:50:55.296Z,98630.24
2019-01-30T09:53:26.845Z,98630.91
2019-01-30T09:55:58.620Z,98633.02
2019-01-30T09:58:29.427Z,98622.31
2019-01-30T10:01:01.061Z,98626.18
2019-01-30T10:03:36.372Z,98617.34
2019-01-30T10:06:08.772Z,98618.89
2019-01-30T10:08:40.462Z,98613.48
2019-01-30T10:11:12.302Z,98611.38
2019-01-30T10:13:43.834Z,98606.80
2019-01-30T10:16:15.766Z,98608.78
2019-01-30T10:18:46.479Z,98601.91
2019-01-30T10:21:18.305Z,98603.59
2019-01-30T10:23:49.870Z,98590.19
2019-01-30T10:26:21.741Z,98594.84
2019-01-30T10:28:52.466Z,98589.39
2019-01-30T10:31:24.306Z,98590.97
2019-01-30T10:33:55.827Z,98583.80
2019-01-30T10:36:27.592Z,98582.55
2019-01-30T10:38:58.671Z,98584.73
2019-01-30T10:54:37.262Z,98559.08
2019-01-30T10:57:09.056Z,98559.16
2019-01-30T10:59:40.741Z,98549.98
2019-01-30T11:02:11.468Z,98558.41
2019-01-30T11:04:43.300Z,98558.22
2019-01-30T11:07:15.424Z,98560.09
2019-01-30T11:09:47.666Z,98558.22
2019-01-30T11:12:19.393Z,98556.56
2019-01-30T11:14:51.298Z,98548.75
2019-01-30T11:17:22.893Z,98551.52
2019-01-30T11:19:54.758Z,98547.58
2019-01-30T11:22:25.492Z,98549.80
2019-01-30T11:24:57.305Z,98551.30
2019-01-30T11:27:28.836Z,98545.66
2019-01-30T11:30:00.581Z,98535.11
2019-01-30T11:32:32.301Z,98532.03
2019-01-30T11:35:03.854Z,98532.03
2019-01-30T11:37:35.806Z,98532.55
2019-01-30T11:40:10.310Z,98536.69
2019-01-30T11:42:41.878Z,98536.99
2019-01-30T11:45:28.307Z,98526.84
2019-01-30T11:48:00.314Z,98526.73
2019-01-30T11:50:31.849Z,98519.86
2019-01-30T11:53:04.300Z,98519.44
2019-01-30T11:55:38.819Z,98524.25
2019-01-30T11:58:09.779Z,98510.94
2019-01-30T12:00:47.329Z,98510.39
2019-01-30T12:03:19.304Z,98505.00
2019-01-30T12:05:51.302Z,98501.27
2019-01-30T12:08:23.384Z,98502.30
2019-01-30T12:10:55.000Z,98493.96
2019-01-30T12:13:26.705Z,98496.47
2019-01-30T12:15:57.486Z,98501.77
2019-01-30T12:18:29.262Z,98501.48
2019-01-30T12:21:00.838Z,98493.97
2019-01-30T12:23:32.609Z,98494.78
2019-01-30T12:26:04.349Z,98480.32
2019-01-30T12:28:36.055Z,98480.32
2019-01-30T12:31:07.753Z,98498.32
2019-01-30T12:33:38.457Z,98493.95
2019-01-30T12:36:10.306Z,98496.36
2019-01-30T12:38:41.986Z,98494.18
2019-01-30T12:41:13.774Z,98490.23
2019-01-30T12:43:45.404Z,98490.13
2019-01-30T12:46:17.380Z,98486.18
2019-01-30T12:48:49.285Z,98486.18
2019-01-30T12:51:20.839Z,98487.11
2019-01-30T12:53:52.381Z,98492.53
2019-01-30T12:56:24.056Z,98486.17
2019-01-30T12:58:55.758Z,98479.72
2019-01-30T13:01:26.622Z,98473.48
2019-01-30T13:03:58.394Z,98460.87
2019-01-30T13:06:30.314Z,98460.87
2019-01-30T13:09:02.061Z,98472.02
2019-01-30T13:11:33.736Z,98466.81
2019-01-30T13:14:04.617Z,98470.88
2019-01-30T13:16:36.425Z,98464.00
2019-01-30T13:19:08.309Z,98464.00
2019-01-30T13:21:39.845Z,98469.84
2019-01-30T13:24:11.417Z,98469.51
2019-01-30T13:26:43.051Z,98471.30
2019-01-30T13:29:14.769Z,98467.33
2019-01-30T13:31:45.491Z,98471.17
2019-01-30T13:34:17.305Z,98471.39
2019-01-30T13:36:49.007Z,98467.55
2019-01-30T13:39:20.796Z,98470.03
2019-01-30T13:41:52.810Z,98466.41
2019-01-30T13:44:24.806Z,98470.03
2019-01-30T13:46:56.476Z,98460.55
2019-01-30T13:49:28.309Z,98465.56
2019-01-30T13:52:00.383Z,98467.95
2019-01-30T13:54:32.344Z,98476.08
2019-01-30T13:57:04.780Z,98474.00
2019-01-30T13:59:36.435Z,98471.48
2019-01-30T14:02:08.797Z,98472.53
2019-01-30T14:04:40.642Z,98467.64
2019-01-30T14:07:12.672Z,98472.95
2019-01-30T14:09:43.524Z,98472.95
2019-01-30T14:12:15.798Z,98471.30
2019-01-30T14:14:47.403Z,98466.41
2019-01-30T14:17:19.161Z,98460.35
2019-01-30T14:19:51.733Z,98462.91
2019-01-30T14:22:22.696Z,98465.38
2019-01-30T14:24:53.754Z,98463.08
2019-01-30T14:27:24.488Z,98461.64
2019-01-30T14:29:58.312Z,98462.59
2019-01-30T14:32:29.729Z,98459.25
2019-01-30T14:35:10.125Z,98456.86
2019-01-30T14:37:33.857Z,98456.23
2019-01-30T14:40:05.933Z,98461.49
2019-01-30T14:42:37.785Z,98464.21
2019-01-30T14:45:10.939Z,98460.45
2019-01-30T14:47:42.797Z,98463.49
2019-01-30T14:50:21.794Z,98458.61
2019-01-30T14:52:52.635Z,98456.53
2019-01-30T14:55:23.639Z,98457.16
2019-01-30T14:57:55.344Z,98453.90
2019-01-30T15:00:33.171Z,98453.90
2019-01-30T15:03:04.979Z,98454.94
2019-01-30T15:05:36.799Z,98453.32
2019-01-30T15:08:08.618Z,98451.27
2019-01-30T15:10:40.393Z,98440.20
2019-01-30T15:13:12.313Z,98440.20
2019-01-30T15:15:44.341Z,98447.69
2019-01-30T15:18:16.305Z,98443.66
2019-01-30T15:20:47.881Z,98450.36
2019-01-30T15:23:19.698Z,98446.67
2019-01-30T15:25:50.464Z,98444.93
2019-01-30T15:28:22.349Z,98449.20
2019-01-30T15:30:53.878Z,98449.69
2019-01-30T15:33:25.393Z,98447.80
2019-01-30T15:35:57.017Z,98444.21
2019-01-30T15:38:28.855Z,98450.00
2019-01-30T15:41:00.674Z,98443.25
2019-01-30T15:43:35.234Z,98429.92
2019-01-30T15:46:06.298Z,98429.92
2019-01-30T15:48:44.280Z,98446.20
2019-01-30T15:51:15.981Z,98455.33
2019-01-30T15:53:47.750Z,98463.82
2019-01-30T15:56:18.669Z,98456.47
2019-01-30T15:58:49.604Z,98457.91
2019-01-30T16:01:29.644Z,98467.34
2019-01-30T16:04:01.359Z,98468.50
2019-01-30T16:06:33.056Z,98468.50
2019-01-30T16:09:06.257Z,98467.16
2019-01-30T16:11:37.833Z,98468.68
2019-01-30T16:14:09.596Z,98470.86
2019-01-30T16:16:41.403Z,98470.66
2019-01-30T16:19:13.056Z,98470.66
2019-01-30T16:21:44.781Z,98468.16
2019-01-30T16:24:16.783Z,98472.22
2019-01-30T16:26:47.604Z,98482.73
2019-01-30T16:29:19.475Z,98473.73
2019-01-30T16:31:51.064Z,98473.73
2019-01-30T16:34:22.750Z,98480.68
2019-01-30T16:36:53.462Z,98483.98
2019-01-30T16:39:25.413Z,98491.73
2019-01-30T16:41:57.065Z,98493.52
2019-01-30T16:44:28.748Z,98489.36
2019-01-30T16:46:59.473Z,98493.42
2019-01-30T16:49:31.306Z,98499.17
2019-01-30T16:52:02.905Z,98500.50
2019-01-30T16:54:34.651Z,98498.11
2019-01-30T16:57:06.323Z,98492.10
2019-01-30T16:59:38.030Z,98492.10
2019-01-30T17:02:09.779Z,98501.91
2019-01-30T17:04:41.477Z,98505.25
2019-01-30T17:07:13.062Z,98498.45
2019-01-30T17:09:44.755Z,98501.28
2019-01-30T17:12:15.629Z,98502.97
2019-01-30T17:14:47.376Z,98495.39
2019-01-30T17:17:19.305Z,98495.39
2019-01-30T17:19:50.897Z,98506.81
2019-01-30T17:22:22.746Z,98496.77
2019-01-30T17:24:54.806Z,98494.92
2019-01-30T17:27:26.555Z,98497.94
2019-01-30T17:29:58.308Z,98478.94
2019-01-30T17:32:30.017Z,98478.94
2019-01-30T17:35:01.778Z,98494.16
2019-01-30T17:37:32.509Z,98495.22
2019-01-30T17:40:04.401Z,98496.39
2019-01-30T17:42:36.310Z,98497.06
2019-01-30T17:45:09.305Z,98507.15
2019-01-30T17:47:40.857Z,98504.78
2019-01-30T17:50:15.988Z,98500.77
2019-01-30T17:52:47.766Z,98502.73
2019-01-30T17:55:18.524Z,98506.44
2019-01-30T17:57:50.738Z,98498.22
2019-01-30T18:00:35.693Z,98497.19
2019-01-30T18:03:06.449Z,98500.56
2019-01-30T18:05:38.376Z,98499.41
2019-01-30T18:08:09.999Z,98504.86
2019-01-30T18:10:41.763Z,98504.23
2019-01-30T18:13:12.535Z,98502.95
2019-01-30T18:15:44.405Z,98496.99
2019-01-30T18:18:16.303Z,98496.99
2019-01-30T18:20:48.344Z,98504.30
2019-01-30T18:23:22.750Z,98507.13
2019-01-30T18:25:53.480Z,98508.19
2019-01-30T18:28:25.373Z,98510.03
2019-01-30T18:30:57.301Z,98505.28
2019-01-30T18:33:30.060Z,98506.81
2019-01-30T18:36:01.798Z,98502.66
2019-01-30T18:38:35.838Z,98507.93
2019-01-30T18:41:07.267Z,98502.87
2019-01-30T18:43:38.998Z,98511.06
2019-01-30T18:46:11.305Z,98507.22
2019-01-30T18:48:42.869Z,98510.12
2019-01-30T18:51:14.896Z,98509.20
2019-01-30T18:53:46.802Z,98514.10
2019-01-30T18:56:19.299Z,98513.70
2019-01-30T18:58:51.303Z,98511.86
2019-01-30T19:01:23.297Z,98509.45
2019-01-30T19:03:55.347Z,98516.28
2019-01-30T19:06:27.479Z,98513.70
2019-01-30T19:08:59.304Z,98514.20
2019-01-30T19:11:31.273Z,98513.41
2019-01-30T19:14:03.610Z,98521.91
2019-01-30T19:16:35.326Z,98521.60
2019-01-30T19:19:07.029Z,98521.60
2019-01-30T19:21:38.744Z,98516.71
2019-01-30T19:24:09.473Z,98519.27
2019-01-30T19:26:41.263Z,98509.20
2019-01-30T19:29:13.301Z,98509.20
2019-01-30T19:31:45.049Z,98512.63
2019-01-30T19:34:16.770Z,98507.52
2019-01-30T19:36:48.859Z,98512.35
2019-01-30T19:39:20.959Z,98512.52
2019-01-30T19:41:52.773Z,98510.02
2019-01-30T19:44:24.650Z,98511.43
2019-01-30T19:46:56.361Z,98498.64
2019-01-30T19:49:28.342Z,98498.64
2019-01-30T19:52:00.066Z,98519.74
2019-01-30T19:54:31.769Z,98523.33
2019-01-30T19:57:02.512Z,98519.50
2019-01-30T19:59:34.470Z,98522.34
2019-01-30T20:02:06.592Z,98521.35
2019-01-30T20:04:38.367Z,98513.94
2019-01-30T20:07:14.794Z,98513.94
2019-01-30T20:09:44.929Z,98524.27
2019-01-30T20:12:28.795Z,98535.41
2019-01-30T20:15:00.668Z,98529.86
2019-01-30T20:17:32.468Z,98529.45
2019-01-30T20:22:40.337Z,98527.42
2019-01-30T20:25:18.414Z,98527.42
2019-01-30T20:27:50.261Z,98542.70
2019-01-30T20:30:23.804Z,98545.99
2019-01-30T20:32:58.554Z,98549.14
2019-01-30T20:35:30.564Z,98548.81
2019-01-30T20:38:02.652Z,98548.89
2019-01-30T20:40:34.529Z,98548.89
2019-01-30T20:43:06.393Z,98546.00
2019-01-30T20:45:38.048Z,98546.00
2019-01-30T20:48:10.362Z,98556.38
2019-01-30T20:50:42.307Z,98560.19
2019-01-30T20:53:14.303Z,98564.24
2019-01-30T20:55:46.761Z,98559.79
2019-01-30T20:58:17.518Z,98563.02
2019-01-30T21:00:49.301Z,98561.88
2019-01-30T21:03:21.028Z,98561.67
2019-01-30T21:05:52.751Z,98563.22
2019-01-30T21:08:24.794Z,98565.64
2019-01-30T21:10:56.376Z,98562.89
2019-01-30T21:13:28.049Z,98568.80
2019-01-30T21:16:00.260Z,98566.52
2019-01-30T21:18:32.061Z,98566.95
2019-01-30T21:21:04.296Z,98565.36
2019-01-30T21:23:35.881Z,98566.42
2019-01-30T21:26:07.389Z,98572.33
2019-01-30T21:28:39.041Z,98572.97
2019-01-30T21:31:10.770Z,98567.45
2019-01-30T21:33:42.647Z,98567.67
2019-01-30T21:36:13.446Z,98570.92
2019-01-30T21:38:45.262Z,98567.69
2019-01-30T21:41:17.403Z,98575.52
2019-01-30T21:43:49.422Z,98575.52
2019-01-30T21:46:21.037Z,98580.09
2019-01-30T21:48:55.267Z,98574.17
2019-01-30T21:51:26.702Z,98578.23
2019-01-30T21:53:58.676Z,98578.23
2019-01-30T21:56:29.471Z,98579.82
2019-01-30T21:59:01.417Z,98580.02
2019-01-30T22:01:33.741Z,98586.77
2019-01-30T22:04:05.868Z,98579.98
2019-01-30T22:06:37.746Z,98577.91
2019-01-30T22:09:09.522Z,98576.98
2019-01-30T22:11:41.342Z,98576.13
2019-01-30T22:14:13.005Z,98577.08
2019-01-30T22:16:44.748Z,98583.66
2019-01-30T22:19:15.475Z,98588.32
2019-01-30T22:21:47.263Z,98592.22
2019-01-30T22:24:18.870Z,98592.94
2019-01-30T22:26:50.741Z,98585.01
2019-01-30T22:29:21.495Z,98586.99
2019-01-30T22:31:53.303Z,98597.74
2019-01-30T22:34:24.879Z,98601.80
2019-01-30T22:36:56.400Z,98596.98
2019-01-30T22:39:28.438Z,98601.38
2019-01-30T22:42:02.418Z,98605.64
2019-01-30T22:44:33.384Z,98606.89
2019-01-30T22:47:05.391Z,98606.89
2019-01-30T22:49:38.050Z,98616.19
2019-01-30T22:52:09.761Z,98619.92
2019-01-30T22:54:40.489Z,98619.09
2019-01-30T22:57:12.302Z,98616.68
2019-01-30T22:59:43.870Z,98615.88
2019-01-30T23:02:16.019Z,98614.93
2019-01-30T23:05:17.826Z,98615.56
2019-01-30T23:08:34.724Z,98617.02
2019-01-30T23:11:59.398Z,98617.88
2019-01-30T23:14:56.634Z,98622.53
2019-01-30T23:18:42.773Z,98601.30
2019-01-30T23:21:22.941Z,98601.30
2019-01-30T23:25:19.826Z,98610.03
2019-01-30T23:28:22.984Z,98610.66
2019-01-30T23:32:25.810Z,98614.85
2019-01-30T23:35:54.823Z,98615.58
2019-01-30T23:39:24.310Z,98611.94
2019-01-30T23:42:49.266Z,98616.00
2019-01-30T23:46:35.841Z,98621.19
2019-01-30T23:50:15.748Z,98608.77
2019-01-30T23:53:54.273Z,98613.48
2019-01-30T23:57:33.004Z,98615.03
